sensor_id;sensor_type;location;lat;lon;timestamp;P1;durP1;ratioP1;P2;durP2;ratioP2
10201;SDS011;5143;42.584;23.164;2024-02-21T00:01:13;3.57;;;3.03;;
10201;SDS011;5143;42.584;23.164;2024-02-21T00:03:40;4.90;;;3.10;;
10201;SDS011;5143;42.584;23.164;2024-02-21T00:06:06;3.50;;;2.87;;
10201;SDS011;5143;42.584;23.164;2024-02-21T00:08:33;3.40;;;3.10;;
10201;SDS011;5143;42.584;23.164;2024-02-21T00:11:01;4.20;;;3.60;;
10201;SDS011;5143;42.584;23.164;2024-02-21T00:13:27;3.97;;;3.30;;
10201;SDS011;5143;42.584;23.164;2024-02-21T00:15:53;4.10;;;3.20;;
10201;SDS011;5143;42.584;23.164;2024-02-21T00:18:20;4.03;;;2.80;;
10201;SDS011;5143;42.584;23.164;2024-02-21T00:20:46;4.20;;;3.20;;
10201;SDS011;5143;42.584;23.164;2024-02-21T00:23:13;3.33;;;3.03;;
10201;SDS011;5143;42.584;23.164;2024-02-21T00:25:39;4.43;;;2.97;;
10201;SDS011;5143;42.584;23.164;2024-02-21T00:28:07;3.33;;;2.97;;
10201;SDS011;5143;42.584;23.164;2024-02-21T00:30:34;3.90;;;3.43;;
10201;SDS011;5143;42.584;23.164;2024-02-21T00:33:03;3.57;;;3.20;;
10201;SDS011;5143;42.584;23.164;2024-02-21T00:35:29;4.30;;;3.37;;
10201;SDS011;5143;42.584;23.164;2024-02-21T00:37:56;4.10;;;3.23;;
10201;SDS011;5143;42.584;23.164;2024-02-21T00:40:24;4.90;;;4.17;;
10201;SDS011;5143;42.584;23.164;2024-02-21T00:42:51;4.10;;;3.70;;
10201;SDS011;5143;42.584;23.164;2024-02-21T00:45:18;4.03;;;3.37;;
10201;SDS011;5143;42.584;23.164;2024-02-21T00:47:45;5.27;;;3.73;;
10201;SDS011;5143;42.584;23.164;2024-02-21T00:50:11;4.30;;;3.50;;
10201;SDS011;5143;42.584;23.164;2024-02-21T00:52:38;4.40;;;3.57;;
10201;SDS011;5143;42.584;23.164;2024-02-21T00:55:05;4.70;;;3.53;;
10201;SDS011;5143;42.584;23.164;2024-02-21T00:57:31;5.27;;;3.60;;
10201;SDS011;5143;42.584;23.164;2024-02-21T00:59:58;3.87;;;3.00;;
10201;SDS011;5143;42.584;23.164;2024-02-21T01:02:26;3.73;;;2.97;;
10201;SDS011;5143;42.584;23.164;2024-02-21T01:04:52;3.93;;;2.97;;
10201;SDS011;5143;42.584;23.164;2024-02-21T01:07:19;3.83;;;3.10;;
10201;SDS011;5143;42.584;23.164;2024-02-21T01:09:45;2.90;;;2.50;;
10201;SDS011;5143;42.584;23.164;2024-02-21T01:12:11;3.53;;;2.77;;
10201;SDS011;5143;42.584;23.164;2024-02-21T01:14:38;3.30;;;2.40;;
10201;SDS011;5143;42.584;23.164;2024-02-21T01:17:04;2.80;;;2.50;;
10201;SDS011;5143;42.584;23.164;2024-02-21T01:19:32;4.10;;;3.03;;
10201;SDS011;5143;42.584;23.164;2024-02-21T01:21:59;3.23;;;2.50;;
10201;SDS011;5143;42.584;23.164;2024-02-21T01:24:25;3.30;;;2.80;;
10201;SDS011;5143;42.584;23.164;2024-02-21T01:26:52;3.47;;;2.70;;
10201;SDS011;5143;42.584;23.164;2024-02-21T01:29:18;3.67;;;2.93;;
10201;SDS011;5143;42.584;23.164;2024-02-21T01:31:45;3.70;;;3.20;;
10201;SDS011;5143;42.584;23.164;2024-02-21T01:34:12;3.90;;;3.10;;
10201;SDS011;5143;42.584;23.164;2024-02-21T01:36:40;3.30;;;2.80;;
10201;SDS011;5143;42.584;23.164;2024-02-21T01:39:07;3.83;;;3.17;;
10201;SDS011;5143;42.584;23.164;2024-02-21T01:41:33;4.13;;;3.33;;
10201;SDS011;5143;42.584;23.164;2024-02-21T01:44:00;4.83;;;3.17;;
10201;SDS011;5143;42.584;23.164;2024-02-21T01:46:26;3.40;;;2.80;;
10201;SDS011;5143;42.584;23.164;2024-02-21T01:48:53;5.07;;;3.40;;
10201;SDS011;5143;42.584;23.164;2024-02-21T01:51:20;3.70;;;3.20;;
10201;SDS011;5143;42.584;23.164;2024-02-21T01:53:48;3.60;;;3.07;;
10201;SDS011;5143;42.584;23.164;2024-02-21T01:56:17;3.60;;;2.97;;
10201;SDS011;5143;42.584;23.164;2024-02-21T01:58:43;4.43;;;3.40;;
10201;SDS011;5143;42.584;23.164;2024-02-21T02:01:10;4.03;;;3.47;;
10201;SDS011;5143;42.584;23.164;2024-02-21T02:03:36;4.17;;;3.37;;
10201;SDS011;5143;42.584;23.164;2024-02-21T02:06:04;3.77;;;3.37;;
10201;SDS011;5143;42.584;23.164;2024-02-21T02:08:31;3.40;;;3.10;;
10201;SDS011;5143;42.584;23.164;2024-02-21T02:10:59;5.53;;;3.30;;
10201;SDS011;5143;42.584;23.164;2024-02-21T02:13:26;4.17;;;3.53;;
10201;SDS011;5143;42.584;23.164;2024-02-21T02:15:52;4.77;;;3.70;;
10201;SDS011;5143;42.584;23.164;2024-02-21T02:18:19;5.13;;;4.03;;
10201;SDS011;5143;42.584;23.164;2024-02-21T02:20:45;5.27;;;4.23;;
10201;SDS011;5143;42.584;23.164;2024-02-21T02:25:41;5.47;;;4.70;;
10201;SDS011;5143;42.584;23.164;2024-02-21T02:28:08;6.77;;;4.93;;
10201;SDS011;5143;42.584;23.164;2024-02-21T02:30:35;6.27;;;4.97;;
10201;SDS011;5143;42.584;23.164;2024-02-21T02:33:02;5.57;;;4.97;;
10201;SDS011;5143;42.584;23.164;2024-02-21T02:35:28;5.90;;;4.87;;
10201;SDS011;5143;42.584;23.164;2024-02-21T02:37:55;6.60;;;5.40;;
10201;SDS011;5143;42.584;23.164;2024-02-21T02:40:22;6.33;;;5.17;;
10201;SDS011;5143;42.584;23.164;2024-02-21T02:42:50;6.80;;;5.97;;
10201;SDS011;5143;42.584;23.164;2024-02-21T02:45:16;8.27;;;6.27;;
10201;SDS011;5143;42.584;23.164;2024-02-21T02:47:44;8.07;;;6.70;;
10201;SDS011;5143;42.584;23.164;2024-02-21T02:50:11;8.17;;;6.30;;
10201;SDS011;5143;42.584;23.164;2024-02-21T02:52:37;7.83;;;5.80;;
10201;SDS011;5143;42.584;23.164;2024-02-21T02:55:04;8.47;;;7.10;;
10201;SDS011;5143;42.584;23.164;2024-02-21T02:57:30;7.77;;;6.20;;
10201;SDS011;5143;42.584;23.164;2024-02-21T02:59:58;8.40;;;6.27;;
10201;SDS011;5143;42.584;23.164;2024-02-21T03:02:25;8.00;;;7.13;;
10201;SDS011;5143;42.584;23.164;2024-02-21T03:04:51;7.87;;;7.00;;
10201;SDS011;5143;42.584;23.164;2024-02-21T03:07:19;7.87;;;7.07;;
10201;SDS011;5143;42.584;23.164;2024-02-21T03:09:46;8.53;;;6.67;;
10201;SDS011;5143;42.584;23.164;2024-02-21T03:12:12;6.33;;;5.57;;
10201;SDS011;5143;42.584;23.164;2024-02-21T03:14:44;6.93;;;5.23;;
10201;SDS011;5143;42.584;23.164;2024-02-21T03:17:11;5.30;;;4.53;;
10201;SDS011;5143;42.584;23.164;2024-02-21T03:19:38;6.30;;;4.57;;
10201;SDS011;5143;42.584;23.164;2024-02-21T03:22:05;6.87;;;5.00;;
10201;SDS011;5143;42.584;23.164;2024-02-21T03:24:31;5.60;;;4.80;;
10201;SDS011;5143;42.584;23.164;2024-02-21T03:26:58;7.27;;;4.83;;
10201;SDS011;5143;42.584;23.164;2024-02-21T03:29:24;7.17;;;5.47;;
10201;SDS011;5143;42.584;23.164;2024-02-21T03:31:51;7.53;;;5.60;;
10201;SDS011;5143;42.584;23.164;2024-02-21T03:34:19;6.13;;;5.23;;
10201;SDS011;5143;42.584;23.164;2024-02-21T03:36:45;6.23;;;5.33;;
10201;SDS011;5143;42.584;23.164;2024-02-21T03:39:12;8.90;;;6.20;;
10201;SDS011;5143;42.584;23.164;2024-02-21T03:41:38;6.57;;;5.30;;
10201;SDS011;5143;42.584;23.164;2024-02-21T03:44:04;7.40;;;5.30;;
10201;SDS011;5143;42.584;23.164;2024-02-21T03:46:31;7.87;;;5.40;;
10201;SDS011;5143;42.584;23.164;2024-02-21T03:48:58;7.40;;;5.57;;
10201;SDS011;5143;42.584;23.164;2024-02-21T03:51:27;6.93;;;5.37;;
10201;SDS011;5143;42.584;23.164;2024-02-21T03:53:53;5.67;;;5.07;;
10201;SDS011;5143;42.584;23.164;2024-02-21T03:56:20;7.13;;;5.57;;
10201;SDS011;5143;42.584;23.164;2024-02-21T03:58:46;7.10;;;5.17;;
10201;SDS011;5143;42.584;23.164;2024-02-21T04:01:14;7.60;;;5.50;;
10201;SDS011;5143;42.584;23.164;2024-02-21T04:03:41;6.47;;;5.30;;
10201;SDS011;5143;42.584;23.164;2024-02-21T04:06:08;6.53;;;5.10;;
10201;SDS011;5143;42.584;23.164;2024-02-21T04:08:36;5.57;;;4.70;;
10201;SDS011;5143;42.584;23.164;2024-02-21T04:11:02;5.97;;;5.00;;
10201;SDS011;5143;42.584;23.164;2024-02-21T04:13:29;6.70;;;5.27;;
10201;SDS011;5143;42.584;23.164;2024-02-21T04:15:55;8.83;;;5.43;;
10201;SDS011;5143;42.584;23.164;2024-02-21T04:18:22;6.37;;;4.90;;
10201;SDS011;5143;42.584;23.164;2024-02-21T04:20:50;6.70;;;5.33;;
10201;SDS011;5143;42.584;23.164;2024-02-21T04:23:16;8.37;;;6.10;;
10201;SDS011;5143;42.584;23.164;2024-02-21T04:25:44;5.63;;;4.90;;
10201;SDS011;5143;42.584;23.164;2024-02-21T04:28:10;8.00;;;5.90;;
10201;SDS011;5143;42.584;23.164;2024-02-21T04:30:37;6.50;;;5.53;;
10201;SDS011;5143;42.584;23.164;2024-02-21T04:33:03;8.33;;;5.83;;
10201;SDS011;5143;42.584;23.164;2024-02-21T04:35:30;7.73;;;5.67;;
10201;SDS011;5143;42.584;23.164;2024-02-21T04:37:56;6.93;;;5.80;;
10201;SDS011;5143;42.584;23.164;2024-02-21T04:40:22;8.60;;;6.30;;
10201;SDS011;5143;42.584;23.164;2024-02-21T04:42:50;10.17;;;6.67;;
10201;SDS011;5143;42.584;23.164;2024-02-21T04:45:17;9.80;;;7.30;;
10201;SDS011;5143;42.584;23.164;2024-02-21T04:47:43;10.53;;;7.47;;
10201;SDS011;5143;42.584;23.164;2024-02-21T04:50:10;9.47;;;7.70;;
10201;SDS011;5143;42.584;23.164;2024-02-21T04:52:38;10.40;;;7.93;;
10201;SDS011;5143;42.584;23.164;2024-02-21T04:55:04;14.27;;;7.47;;
10201;SDS011;5143;42.584;23.164;2024-02-21T04:57:31;9.27;;;6.77;;
10201;SDS011;5143;42.584;23.164;2024-02-21T04:59:59;10.20;;;6.93;;
10201;SDS011;5143;42.584;23.164;2024-02-21T05:02:25;10.17;;;7.90;;
10201;SDS011;5143;42.584;23.164;2024-02-21T05:04:52;11.57;;;8.03;;
10201;SDS011;5143;42.584;23.164;2024-02-21T05:07:18;10.77;;;7.77;;
10201;SDS011;5143;42.584;23.164;2024-02-21T05:09:45;10.50;;;7.67;;
10201;SDS011;5143;42.584;23.164;2024-02-21T05:12:12;9.43;;;7.57;;
10201;SDS011;5143;42.584;23.164;2024-02-21T05:14:38;12.97;;;9.50;;
10201;SDS011;5143;42.584;23.164;2024-02-21T05:17:06;10.03;;;7.63;;
10201;SDS011;5143;42.584;23.164;2024-02-21T05:19:32;10.70;;;8.00;;
10201;SDS011;5143;42.584;23.164;2024-02-21T05:21:59;10.90;;;8.37;;
10201;SDS011;5143;42.584;23.164;2024-02-21T05:24:25;14.03;;;8.83;;
10201;SDS011;5143;42.584;23.164;2024-02-21T05:26:53;13.53;;;8.23;;
10201;SDS011;5143;42.584;23.164;2024-02-21T05:29:19;11.77;;;8.20;;
10201;SDS011;5143;42.584;23.164;2024-02-21T05:31:55;11.23;;;8.37;;
10201;SDS011;5143;42.584;23.164;2024-02-21T05:34:23;9.93;;;7.57;;
10201;SDS011;5143;42.584;23.164;2024-02-21T05:36:50;9.37;;;7.47;;
10201;SDS011;5143;42.584;23.164;2024-02-21T05:39:17;11.03;;;8.07;;
10201;SDS011;5143;42.584;23.164;2024-02-21T05:41:43;11.67;;;9.23;;
10201;SDS011;5143;42.584;23.164;2024-02-21T05:44:10;12.30;;;9.07;;
10201;SDS011;5143;42.584;23.164;2024-02-21T05:46:36;11.20;;;8.10;;
10201;SDS011;5143;42.584;23.164;2024-02-21T05:49:02;11.83;;;8.10;;
10201;SDS011;5143;42.584;23.164;2024-02-21T05:51:33;9.80;;;7.67;;
10201;SDS011;5143;42.584;23.164;2024-02-21T05:53:59;9.10;;;7.07;;
10201;SDS011;5143;42.584;23.164;2024-02-21T05:56:26;10.17;;;8.00;;
10201;SDS011;5143;42.584;23.164;2024-02-21T05:58:53;12.87;;;9.17;;
10201;SDS011;5143;42.584;23.164;2024-02-21T06:01:19;15.00;;;10.17;;
10201;SDS011;5143;42.584;23.164;2024-02-21T06:03:47;12.67;;;10.10;;
10201;SDS011;5143;42.584;23.164;2024-02-21T06:06:13;13.80;;;10.03;;
10201;SDS011;5143;42.584;23.164;2024-02-21T06:08:41;13.63;;;9.53;;
10201;SDS011;5143;42.584;23.164;2024-02-21T06:11:08;13.87;;;10.17;;
10201;SDS011;5143;42.584;23.164;2024-02-21T06:13:37;11.10;;;8.43;;
10201;SDS011;5143;42.584;23.164;2024-02-21T06:16:04;11.23;;;9.17;;
10201;SDS011;5143;42.584;23.164;2024-02-21T06:18:31;13.70;;;9.27;;
10201;SDS011;5143;42.584;23.164;2024-02-21T06:20:57;13.97;;;9.70;;
10201;SDS011;5143;42.584;23.164;2024-02-21T06:23:24;12.20;;;9.03;;
10201;SDS011;5143;42.584;23.164;2024-02-21T06:25:52;11.57;;;9.20;;
10201;SDS011;5143;42.584;23.164;2024-02-21T06:28:18;13.27;;;9.50;;
10201;SDS011;5143;42.584;23.164;2024-02-21T06:30:45;11.53;;;8.93;;
10201;SDS011;5143;42.584;23.164;2024-02-21T06:33:12;12.27;;;9.67;;
10201;SDS011;5143;42.584;23.164;2024-02-21T06:35:38;14.50;;;10.03;;
10201;SDS011;5143;42.584;23.164;2024-02-21T06:38:06;11.40;;;9.20;;
10201;SDS011;5143;42.584;23.164;2024-02-21T06:40:32;12.70;;;9.53;;
10201;SDS011;5143;42.584;23.164;2024-02-21T06:43:05;12.33;;;9.37;;
10201;SDS011;5143;42.584;23.164;2024-02-21T06:45:32;15.80;;;10.70;;
10201;SDS011;5143;42.584;23.164;2024-02-21T06:47:58;15.87;;;11.03;;
10201;SDS011;5143;42.584;23.164;2024-02-21T06:50:25;16.50;;;10.00;;
10201;SDS011;5143;42.584;23.164;2024-02-21T06:52:51;15.20;;;10.30;;
10201;SDS011;5143;42.584;23.164;2024-02-21T06:55:18;17.33;;;10.67;;
10201;SDS011;5143;42.584;23.164;2024-02-21T06:57:44;19.00;;;12.47;;
10201;SDS011;5143;42.584;23.164;2024-02-21T07:00:13;25.57;;;13.10;;
10201;SDS011;5143;42.584;23.164;2024-02-21T07:02:40;29.27;;;17.97;;
10201;SDS011;5143;42.584;23.164;2024-02-21T07:05:07;33.77;;;19.43;;
10201;SDS011;5143;42.584;23.164;2024-02-21T07:07:33;31.93;;;19.73;;
10201;SDS011;5143;42.584;23.164;2024-02-21T07:10:00;31.50;;;17.43;;
10201;SDS011;5143;42.584;23.164;2024-02-21T07:12:26;24.73;;;15.17;;
10201;SDS011;5143;42.584;23.164;2024-02-21T07:14:53;22.53;;;13.80;;
10201;SDS011;5143;42.584;23.164;2024-02-21T07:17:21;18.07;;;12.73;;
10201;SDS011;5143;42.584;23.164;2024-02-21T07:19:47;21.47;;;14.17;;
10201;SDS011;5143;42.584;23.164;2024-02-21T07:22:13;22.37;;;14.67;;
10201;SDS011;5143;42.584;23.164;2024-02-21T07:24:40;24.07;;;13.90;;
10201;SDS011;5143;42.584;23.164;2024-02-21T07:27:06;9.70;;;7.90;;
10201;SDS011;5143;42.584;23.164;2024-02-21T07:29:33;9.17;;;7.60;;
10201;SDS011;5143;42.584;23.164;2024-02-21T07:31:59;11.00;;;8.57;;
10201;SDS011;5143;42.584;23.164;2024-02-21T07:34:27;11.00;;;8.90;;
10201;SDS011;5143;42.584;23.164;2024-02-21T07:36:53;15.93;;;9.00;;
10201;SDS011;5143;42.584;23.164;2024-02-21T07:39:20;13.53;;;9.30;;
10201;SDS011;5143;42.584;23.164;2024-02-21T07:41:46;11.67;;;8.20;;
10201;SDS011;5143;42.584;23.164;2024-02-21T07:44:14;12.23;;;9.17;;
10201;SDS011;5143;42.584;23.164;2024-02-21T07:46:40;8.97;;;7.90;;
10201;SDS011;5143;42.584;23.164;2024-02-21T07:49:07;9.50;;;7.83;;
10201;SDS011;5143;42.584;23.164;2024-02-21T07:51:35;11.23;;;7.93;;
10201;SDS011;5143;42.584;23.164;2024-02-21T07:54:01;10.77;;;7.67;;
10201;SDS011;5143;42.584;23.164;2024-02-21T07:56:29;9.73;;;7.93;;
10201;SDS011;5143;42.584;23.164;2024-02-21T07:58:56;11.33;;;9.40;;
10201;SDS011;5143;42.584;23.164;2024-02-21T08:01:22;11.07;;;9.20;;
10201;SDS011;5143;42.584;23.164;2024-02-21T08:03:49;14.77;;;9.30;;
10201;SDS011;5143;42.584;23.164;2024-02-21T08:06:15;12.87;;;8.93;;
10201;SDS011;5143;42.584;23.164;2024-02-21T08:08:43;11.00;;;8.73;;
10201;SDS011;5143;42.584;23.164;2024-02-21T08:11:09;12.43;;;8.50;;
10201;SDS011;5143;42.584;23.164;2024-02-21T08:13:36;12.50;;;9.57;;
10201;SDS011;5143;42.584;23.164;2024-02-21T08:16:02;10.63;;;8.23;;
10201;SDS011;5143;42.584;23.164;2024-02-21T08:18:29;8.30;;;7.40;;
10201;SDS011;5143;42.584;23.164;2024-02-21T08:20:55;11.23;;;7.67;;
10201;SDS011;5143;42.584;23.164;2024-02-21T08:23:22;9.57;;;6.37;;
10201;SDS011;5143;42.584;23.164;2024-02-21T08:25:50;7.60;;;6.27;;
10201;SDS011;5143;42.584;23.164;2024-02-21T08:28:17;8.07;;;6.90;;
10201;SDS011;5143;42.584;23.164;2024-02-21T08:30:43;8.03;;;6.50;;
10201;SDS011;5143;42.584;23.164;2024-02-21T08:33:13;10.10;;;6.97;;
10201;SDS011;5143;42.584;23.164;2024-02-21T08:35:39;10.17;;;6.97;;
10201;SDS011;5143;42.584;23.164;2024-02-21T08:38:05;11.57;;;7.80;;
10201;SDS011;5143;42.584;23.164;2024-02-21T08:40:32;8.67;;;7.30;;
10201;SDS011;5143;42.584;23.164;2024-02-21T08:43:01;10.00;;;7.70;;
10201;SDS011;5143;42.584;23.164;2024-02-21T08:45:28;9.67;;;7.27;;
10201;SDS011;5143;42.584;23.164;2024-02-21T08:47:55;8.77;;;6.30;;
10201;SDS011;5143;42.584;23.164;2024-02-21T08:50:22;8.03;;;7.03;;
10201;SDS011;5143;42.584;23.164;2024-02-21T08:52:48;8.93;;;6.87;;
10201;SDS011;5143;42.584;23.164;2024-02-21T08:55:15;8.83;;;7.27;;
10201;SDS011;5143;42.584;23.164;2024-02-21T08:57:41;8.27;;;6.90;;
10201;SDS011;5143;42.584;23.164;2024-02-21T09:00:10;10.43;;;7.17;;
10201;SDS011;5143;42.584;23.164;2024-02-21T09:02:39;8.57;;;7.67;;
10201;SDS011;5143;42.584;23.164;2024-02-21T09:05:06;9.43;;;6.87;;
10201;SDS011;5143;42.584;23.164;2024-02-21T09:07:33;9.20;;;7.27;;
10201;SDS011;5143;42.584;23.164;2024-02-21T09:09:59;9.33;;;6.83;;
10201;SDS011;5143;42.584;23.164;2024-02-21T09:12:26;8.97;;;6.87;;
10201;SDS011;5143;42.584;23.164;2024-02-21T09:14:53;7.47;;;6.47;;
10201;SDS011;5143;42.584;23.164;2024-02-21T09:17:21;9.00;;;6.47;;
10201;SDS011;5143;42.584;23.164;2024-02-21T09:19:47;8.57;;;5.90;;
10201;SDS011;5143;42.584;23.164;2024-02-21T09:22:14;7.43;;;6.60;;
10201;SDS011;5143;42.584;23.164;2024-02-21T09:24:40;8.63;;;6.40;;
10201;SDS011;5143;42.584;23.164;2024-02-21T09:27:06;9.73;;;7.20;;
10201;SDS011;5143;42.584;23.164;2024-02-21T09:29:33;12.47;;;7.00;;
10201;SDS011;5143;42.584;23.164;2024-02-21T09:31:59;9.87;;;7.17;;
10201;SDS011;5143;42.584;23.164;2024-02-21T09:34:27;22.80;;;6.90;;
10201;SDS011;5143;42.584;23.164;2024-02-21T09:36:54;9.33;;;6.57;;
10201;SDS011;5143;42.584;23.164;2024-02-21T09:39:20;12.03;;;6.47;;
10201;SDS011;5143;42.584;23.164;2024-02-21T09:41:48;11.30;;;6.90;;
10201;SDS011;5143;42.584;23.164;2024-02-21T09:44:17;10.70;;;6.27;;
10201;SDS011;5143;42.584;23.164;2024-02-21T09:46:48;9.50;;;6.43;;
10201;SDS011;5143;42.584;23.164;2024-02-21T09:49:20;8.63;;;6.30;;
10201;SDS011;5143;42.584;23.164;2024-02-21T09:51:51;9.37;;;6.50;;
10201;SDS011;5143;42.584;23.164;2024-02-21T09:54:18;9.50;;;5.80;;
10201;SDS011;5143;42.584;23.164;2024-02-21T09:56:45;8.77;;;6.10;;
10201;SDS011;5143;42.584;23.164;2024-02-21T09:59:12;7.13;;;5.60;;
10201;SDS011;5143;42.584;23.164;2024-02-21T10:01:39;7.27;;;5.57;;
10201;SDS011;5143;42.584;23.164;2024-02-21T10:04:05;13.07;;;6.63;;
10201;SDS011;5143;42.584;23.164;2024-02-21T10:06:32;9.97;;;6.67;;
10201;SDS011;5143;42.584;23.164;2024-02-21T10:09:00;9.07;;;5.50;;
10201;SDS011;5143;42.584;23.164;2024-02-21T10:11:26;22.27;;;6.97;;
10201;SDS011;5143;42.584;23.164;2024-02-21T10:14:02;6.93;;;4.73;;
10201;SDS011;5143;42.584;23.164;2024-02-21T10:16:29;9.87;;;5.80;;
10201;SDS011;5143;42.584;23.164;2024-02-21T10:18:55;11.77;;;6.20;;
10201;SDS011;5143;42.584;23.164;2024-02-21T10:21:21;8.97;;;5.53;;
10201;SDS011;5143;42.584;23.164;2024-02-21T10:23:48;9.67;;;6.23;;
10201;SDS011;5143;42.584;23.164;2024-02-21T10:26:17;6.40;;;5.50;;
10201;SDS011;5143;42.584;23.164;2024-02-21T10:28:44;13.23;;;8.60;;
10201;SDS011;5143;42.584;23.164;2024-02-21T10:31:21;13.50;;;7.10;;
10201;SDS011;5143;42.584;23.164;2024-02-21T10:33:53;14.47;;;6.43;;
10201;SDS011;5143;42.584;23.164;2024-02-21T10:36:19;11.50;;;5.23;;
10201;SDS011;5143;42.584;23.164;2024-02-21T10:38:46;4.67;;;4.13;;
10201;SDS011;5143;42.584;23.164;2024-02-21T10:41:13;5.67;;;4.73;;
10201;SDS011;5143;42.584;23.164;2024-02-21T10:43:41;6.17;;;5.20;;
10201;SDS011;5143;42.584;23.164;2024-02-21T10:46:09;6.50;;;5.80;;
10201;SDS011;5143;42.584;23.164;2024-02-21T10:48:42;21.47;;;5.87;;
10201;SDS011;5143;42.584;23.164;2024-02-21T10:51:12;8.50;;;5.27;;
10201;SDS011;5143;42.584;23.164;2024-02-21T10:53:41;5.80;;;4.70;;
10201;SDS011;5143;42.584;23.164;2024-02-21T10:56:13;6.13;;;4.73;;
10201;SDS011;5143;42.584;23.164;2024-02-21T10:58:43;6.40;;;4.37;;
10201;SDS011;5143;42.584;23.164;2024-02-21T11:01:10;6.37;;;4.90;;
10201;SDS011;5143;42.584;23.164;2024-02-21T11:03:38;6.03;;;4.33;;
10201;SDS011;5143;42.584;23.164;2024-02-21T11:06:04;5.47;;;4.13;;
10201;SDS011;5143;42.584;23.164;2024-02-21T11:08:31;5.07;;;4.30;;
10201;SDS011;5143;42.584;23.164;2024-02-21T11:10:58;7.77;;;4.00;;
10201;SDS011;5143;42.584;23.164;2024-02-21T11:13:30;4.13;;;3.43;;
10201;SDS011;5143;42.584;23.164;2024-02-21T11:16:06;4.80;;;3.40;;
10201;SDS011;5143;42.584;23.164;2024-02-21T11:18:34;4.47;;;3.60;;
10201;SDS011;5143;42.584;23.164;2024-02-21T11:21:00;6.87;;;4.03;;
10201;SDS011;5143;42.584;23.164;2024-02-21T11:23:28;4.37;;;3.97;;
10201;SDS011;5143;42.584;23.164;2024-02-21T11:26:03;14.53;;;4.63;;
10201;SDS011;5143;42.584;23.164;2024-02-21T11:28:29;6.13;;;4.23;;
10201;SDS011;5143;42.584;23.164;2024-02-21T11:31:04;8.20;;;4.03;;
10201;SDS011;5143;42.584;23.164;2024-02-21T11:33:32;10.10;;;4.40;;
10201;SDS011;5143;42.584;23.164;2024-02-21T11:35:59;5.77;;;4.07;;
10201;SDS011;5143;42.584;23.164;2024-02-21T11:38:25;4.30;;;3.70;;
10201;SDS011;5143;42.584;23.164;2024-02-21T11:40:52;6.43;;;3.80;;
10201;SDS011;5143;42.584;23.164;2024-02-21T11:43:18;5.17;;;4.00;;
10201;SDS011;5143;42.584;23.164;2024-02-21T11:45:45;6.07;;;3.87;;
10201;SDS011;5143;42.584;23.164;2024-02-21T11:48:11;5.73;;;3.60;;
10201;SDS011;5143;42.584;23.164;2024-02-21T11:50:39;11.97;;;3.67;;
10201;SDS011;5143;42.584;23.164;2024-02-21T11:53:05;10.37;;;4.17;;
10201;SDS011;5143;42.584;23.164;2024-02-21T11:55:32;6.17;;;3.20;;
10201;SDS011;5143;42.584;23.164;2024-02-21T11:57:59;6.73;;;3.60;;
10201;SDS011;5143;42.584;23.164;2024-02-21T12:00:26;7.50;;;3.50;;
10201;SDS011;5143;42.584;23.164;2024-02-21T12:02:52;6.43;;;3.77;;
10201;SDS011;5143;42.584;23.164;2024-02-21T12:05:20;6.07;;;3.90;;
10201;SDS011;5143;42.584;23.164;2024-02-21T12:07:48;6.57;;;3.90;;
10201;SDS011;5143;42.584;23.164;2024-02-21T12:10:15;5.67;;;3.33;;
10201;SDS011;5143;42.584;23.164;2024-02-21T12:12:41;6.00;;;3.63;;
10201;SDS011;5143;42.584;23.164;2024-02-21T12:15:08;6.43;;;3.50;;
10201;SDS011;5143;42.584;23.164;2024-02-21T12:17:34;4.93;;;4.00;;
10201;SDS011;5143;42.584;23.164;2024-02-21T12:20:01;4.80;;;4.10;;
10201;SDS011;5143;42.584;23.164;2024-02-21T12:22:30;6.60;;;3.77;;
10201;SDS011;5143;42.584;23.164;2024-02-21T12:24:59;5.23;;;4.00;;
10201;SDS011;5143;42.584;23.164;2024-02-21T12:27:29;6.17;;;4.23;;
10201;SDS011;5143;42.584;23.164;2024-02-21T12:29:55;4.57;;;3.60;;
10201;SDS011;5143;42.584;23.164;2024-02-21T12:32:22;3.10;;;2.77;;
10201;SDS011;5143;42.584;23.164;2024-02-21T12:34:48;4.20;;;2.97;;
10201;SDS011;5143;42.584;23.164;2024-02-21T12:37:15;3.33;;;3.00;;
10201;SDS011;5143;42.584;23.164;2024-02-21T12:39:42;5.73;;;3.30;;
10201;SDS011;5143;42.584;23.164;2024-02-21T12:42:10;4.50;;;3.30;;
10201;SDS011;5143;42.584;23.164;2024-02-21T12:44:37;4.07;;;3.23;;
10201;SDS011;5143;42.584;23.164;2024-02-21T12:47:04;5.50;;;3.30;;
10201;SDS011;5143;42.584;23.164;2024-02-21T12:49:30;5.20;;;3.40;;
10201;SDS011;5143;42.584;23.164;2024-02-21T12:51:57;3.57;;;3.00;;
10201;SDS011;5143;42.584;23.164;2024-02-21T12:54:24;4.97;;;3.00;;
10201;SDS011;5143;42.584;23.164;2024-02-21T12:56:51;3.50;;;3.10;;
10201;SDS011;5143;42.584;23.164;2024-02-21T12:59:19;3.70;;;3.17;;
10201;SDS011;5143;42.584;23.164;2024-02-21T13:01:46;3.47;;;3.07;;
10201;SDS011;5143;42.584;23.164;2024-02-21T13:04:12;4.23;;;3.30;;
10201;SDS011;5143;42.584;23.164;2024-02-21T13:06:39;4.77;;;3.40;;
10201;SDS011;5143;42.584;23.164;2024-02-21T13:09:05;4.40;;;3.30;;
10201;SDS011;5143;42.584;23.164;2024-02-21T13:11:33;4.27;;;3.87;;
10201;SDS011;5143;42.584;23.164;2024-02-21T13:14:00;4.60;;;3.83;;
10201;SDS011;5143;42.584;23.164;2024-02-21T13:16:28;5.47;;;3.47;;
10201;SDS011;5143;42.584;23.164;2024-02-21T13:18:54;6.90;;;3.53;;
10201;SDS011;5143;42.584;23.164;2024-02-21T13:21:21;5.00;;;3.60;;
10201;SDS011;5143;42.584;23.164;2024-02-21T13:23:47;4.87;;;4.00;;
10201;SDS011;5143;42.584;23.164;2024-02-21T13:26:14;6.27;;;3.63;;
10201;SDS011;5143;42.584;23.164;2024-02-21T13:28:41;6.87;;;4.23;;
10201;SDS011;5143;42.584;23.164;2024-02-21T13:31:09;4.30;;;3.50;;
10201;SDS011;5143;42.584;23.164;2024-02-21T13:33:37;5.87;;;3.77;;
10201;SDS011;5143;42.584;23.164;2024-02-21T13:36:04;9.87;;;4.33;;
10201;SDS011;5143;42.584;23.164;2024-02-21T13:38:30;14.20;;;4.60;;
10201;SDS011;5143;42.584;23.164;2024-02-21T13:40:57;7.40;;;3.13;;
10201;SDS011;5143;42.584;23.164;2024-02-21T13:43:25;4.70;;;3.47;;
10201;SDS011;5143;42.584;23.164;2024-02-21T13:45:55;7.53;;;2.73;;
10201;SDS011;5143;42.584;23.164;2024-02-21T13:48:22;3.10;;;2.30;;
10201;SDS011;5143;42.584;23.164;2024-02-21T13:50:49;3.20;;;2.40;;
10201;SDS011;5143;42.584;23.164;2024-02-21T13:53:16;3.60;;;2.73;;
10201;SDS011;5143;42.584;23.164;2024-02-21T13:55:43;5.23;;;3.20;;
10201;SDS011;5143;42.584;23.164;2024-02-21T13:58:10;4.27;;;2.83;;
10201;SDS011;5143;42.584;23.164;2024-02-21T14:00:36;4.43;;;3.00;;
10201;SDS011;5143;42.584;23.164;2024-02-21T14:03:03;4.77;;;3.17;;
10201;SDS011;5143;42.584;23.164;2024-02-21T14:05:29;3.43;;;3.10;;
10201;SDS011;5143;42.584;23.164;2024-02-21T14:07:57;5.87;;;3.73;;
10201;SDS011;5143;42.584;23.164;2024-02-21T14:10:24;6.23;;;3.20;;
10201;SDS011;5143;42.584;23.164;2024-02-21T14:12:50;5.30;;;3.63;;
10201;SDS011;5143;42.584;23.164;2024-02-21T14:15:17;4.53;;;3.23;;
10201;SDS011;5143;42.584;23.164;2024-02-21T14:17:43;7.03;;;3.30;;
10201;SDS011;5143;42.584;23.164;2024-02-21T14:20:10;4.13;;;2.90;;
10201;SDS011;5143;42.584;23.164;2024-02-21T14:22:39;4.90;;;3.73;;
10201;SDS011;5143;42.584;23.164;2024-02-21T14:25:07;10.20;;;4.03;;
10201;SDS011;5143;42.584;23.164;2024-02-21T14:27:33;5.23;;;3.70;;
10201;SDS011;5143;42.584;23.164;2024-02-21T14:30:01;4.93;;;3.23;;
10201;SDS011;5143;42.584;23.164;2024-02-21T14:32:27;3.53;;;2.93;;
10201;SDS011;5143;42.584;23.164;2024-02-21T14:34:54;7.30;;;3.30;;
10201;SDS011;5143;42.584;23.164;2024-02-21T14:37:20;4.20;;;3.17;;
10201;SDS011;5143;42.584;23.164;2024-02-21T14:39:47;6.63;;;3.20;;
10201;SDS011;5143;42.584;23.164;2024-02-21T14:42:15;4.93;;;3.27;;
10201;SDS011;5143;42.584;23.164;2024-02-21T14:44:42;9.70;;;3.83;;